Time;durP1;ratioP1;P1;durP2;ratioP2;P2;SDS_P1;SDS_P2;PMS_P1;PMS_P2;Temp;Humidity;BMP_temperature;BMP_pressure;BME280_temperature;BME280_humidity;BME280_pressure;Samples;Min_cycle;Max_cycle;Signal;HPM_P1;HPM_P2
2021/04/03 00:01:12;;;;;;;;;;;22.90;34.40;;;;;;1613532;72;773;-56
2021/04/03 00:03:14;;;;;;;;;;;22.90;34.50;;;;;;1609650;72;901;-57
2021/04/03 00:05:16;;;;;;;;;;;22.90;34.40;;;;;;1609733;72;685;-57
2021/04/03 00:07:18;;;;;;;;;;;22.90;34.50;;;;;;1626040;72;776;-57
2021/04/03 00:09:20;;;;;;;;;;;22.90;34.60;;;;;;1609913;72;1197;-54
2021/04/03 00:11:21;;;;;;;;;;;22.90;34.40;;;;;;1609510;72;757;-56
2021/04/03 00:13:24;;;;;;;;;;;22.80;34.30;;;;;;1607139;72;738;-57
2021/04/03 00:15:27;;;;;;;;;;;22.90;34.40;;;;;;1608552;72;793;-57
2021/04/03 00:17:29;;;;;;;;;;;22.90;34.50;;;;;;1605741;72;1934;-53
2021/04/03 00:19:30;;;;;;;;;;;22.90;34.50;;;;;;1606965;72;1138;-56
2021/04/03 00:21:32;;;;;;;;;;;22.90;34.40;;;;;;1604878;72;744;-56
2021/04/03 00:23:34;;;;;;;;;;;22.80;34.40;;;;;;1614884;72;766;-56
2021/04/03 00:25:36;;;;;;;;;;;22.80;34.50;;;;;;1603141;72;738;-59
2021/04/03 00:27:38;;;;;;;;;;;22.90;35.00;;;;;;1610449;72;809;-59
2021/04/03 00:29:40;;;;;;;;;;;22.90;35.00;;;;;;1598403;72;1152;-58
2021/04/03 00:31:42;;;;;;;;;;;22.80;34.90;;;;;;1598846;72;761;-57
2021/04/03 00:33:44;;;;;;;;;;;22.80;34.90;;;;;;1605973;72;764;-57
2021/04/03 00:35:46;;;;;;;;;;;22.90;34.90;;;;;;1602362;72;765;-57
2021/04/03 00:37:48;;;;;;;;;;;22.90;35.00;;;;;;1601830;72;1933;-55
2021/04/03 00:39:49;;;;;;;;;;;22.90;35.00;;;;;;1602429;72;1111;-54
2021/04/03 00:41:51;;;;;;;;;;;22.90;35.30;;;;;;1605724;72;806;-52
2021/04/03 00:43:53;;;;;;;;;;;22.90;35.20;;;;;;1600558;72;763;-57
2021/04/03 00:45:55;;;;;;;;;;;22.90;35.20;;;;;;1601959;72;749;-57
2021/04/03 00:47:57;;;;;;;;;;;22.90;35.30;;;;;;1598082;72;705;-56
2021/04/03 00:49:59;;;;;;;;;;;22.90;35.30;;;;;;1603160;72;1223;-56
2021/04/03 00:52:05;;;;;;;;;;;22.80;35.10;;;;;;1608023;72;753;-55
2021/04/03 00:54:07;;;;;;;;;;;22.80;35.10;;;;;;1601860;72;1844;-56
2021/04/03 00:56:09;;;;;;;;;;;22.80;35.00;;;;;;1607754;72;1950;-56
2021/04/03 00:58:11;;;;;;;;;;;22.90;35.00;;;;;;1595013;72;1234;-55
2021/04/03 01:00:13;;;;;;;;;;;22.80;34.90;;;;;;1604726;72;782;-55
2021/04/03 01:02:15;;;;;;;;;;;22.90;35.00;;;;;;1607570;72;673;-53
2021/04/03 01:04:17;;;;;;;;;;;22.90;35.10;;;;;;1601711;72;764;-54
2021/04/03 01:06:19;;;;;;;;;;;22.90;35.20;;;;;;1601199;72;739;-54
2021/04/03 01:08:20;;;;;;;;;;;22.90;35.20;;;;;;1602687;72;1248;-55
2021/04/03 01:10:23;;;;;;;;;;;22.90;35.10;;;;;;1596838;72;757;-58
2021/04/03 01:12:30;;;;;;;;;;;22.90;35.20;;;;;;1608490;72;754;-53
2021/04/03 01:14:39;;;;;;;;;;;22.90;35.20;;;;;;1595521;72;789;-56
2021/04/03 01:16:43;;;;;;;;;;;22.90;35.30;;;;;;1609228;72;1928;-59
2021/04/03 01:18:46;;;;;;;;;;;22.90;35.40;;;;;;1601419;72;1175;-58
2021/04/03 01:20:55;;;;;;;;;;;22.90;35.60;;;;;;1599667;72;744;-55
2021/04/03 01:23:13;;;;;;;;;;;22.90;35.50;;;;;;1606512;72;788;-58
2021/04/03 01:25:32;;;;;;;;;;;22.90;35.70;;;;;;1602780;72;906;-55
2021/04/03 01:27:34;;;;;;;;;;;22.90;35.70;;;;;;1600934;72;732;-57
2021/04/03 01:30:01;;;;;;;;;;;22.80;35.50;;;;;;1598330;72;1144;-57
2021/04/03 01:32:00;;;;;;;;;;;22.90;35.70;;;;;;1595194;72;1164;-56
2021/04/03 01:34:02;;;;;;;;;;;22.90;35.50;;;;;;1598679;72;784;-58
2021/04/03 01:36:04;;;;;;;;;;;22.90;35.50;;;;;;1602343;72;728;-55
2021/04/03 01:38:07;;;;;;;;;;;22.90;35.40;;;;;;1597635;72;1934;-57
2021/04/03 01:40:09;;;;;;;;;;;22.90;35.50;;;;;;1597283;72;769;-54
2021/04/03 01:42:12;;;;;;;;;;;22.80;35.40;;;;;;1600469;72;814;-55
2021/04/03 01:44:25;;;;;;;;;;;22.90;35.40;;;;;;1602708;72;794;-57
2021/04/03 01:46:28;;;;;;;;;;;22.90;35.50;;;;;;1589619;72;990;-57
2021/04/03 01:48:30;;;;;;;;;;;22.90;35.70;;;;;;1603277;72;1651;-55
2021/04/03 01:50:32;;;;;;;;;;;22.90;35.80;;;;;;1591731;72;804;-55
2021/04/03 01:52:34;;;;;;;;;;;22.80;35.60;;;;;;1598008;72;682;-57
2021/04/03 01:54:36;;;;;;;;;;;22.90;35.70;;;;;;1601866;72;673;-56
2021/04/03 01:56:38;;;;;;;;;;;22.90;35.70;;;;;;1599057;72;1938;-54
2021/04/03 01:58:40;;;;;;;;;;;22.90;35.70;;;;;;1592231;72;1206;-53
2021/04/03 02:00:42;;;;;;;;;;;22.90;35.60;;;;;;1594734;72;738;-58
2021/04/03 02:02:44;;;;;;;;;;;22.80;35.50;;;;;;1603315;72;661;-59
2021/04/03 02:04:45;;;;;;;;;;;22.90;35.60;;;;;;1600267;72;818;-57
2021/04/03 02:06:47;;;;;;;;;;;22.80;35.50;;;;;;1601428;72;626;-57
2021/04/03 02:08:49;;;;;;;;;;;22.90;35.60;;;;;;1599855;72;1164;-59
2021/04/03 02:10:51;;;;;;;;;;;22.90;35.60;;;;;;1601790;72;811;-56
2021/04/03 02:12:53;;;;;;;;;;;22.80;35.40;;;;;;1609497;72;809;-56
2021/04/03 02:14:55;;;;;;;;;;;22.90;35.50;;;;;;1606243;72;731;-54
2021/04/03 02:16:57;;;;;;;;;;;22.90;35.70;;;;;;1597856;72;1937;-54
2021/04/03 02:18:59;;;;;;;;;;;22.90;35.50;;;;;;1596086;72;1359;-56
2021/04/03 02:21:05;;;;;;;;;;;22.90;35.80;;;;;;1595168;72;736;-55
2021/04/03 02:23:07;;;;;;;;;;;22.90;35.90;;;;;;1599666;72;657;-55
2021/04/03 02:25:09;;;;;;;;;;;22.90;36.10;;;;;;1601566;72;802;-55
2021/04/03 02:27:11;;;;;;;;;;;22.90;36.10;;;;;;1599138;72;705;-55
2021/04/03 02:29:13;;;;;;;;;;;22.90;36.10;;;;;;1596545;72;1122;-55
2021/04/03 02:31:15;;;;;;;;;;;22.90;36.20;;;;;;1602501;72;810;-53
2021/04/03 02:33:17;;;;;;;;;;;22.90;36.20;;;;;;1602681;72;784;-56
2021/04/03 02:35:19;;;;;;;;;;;22.90;36.20;;;;;;1598138;72;770;-55
2021/04/03 02:37:21;;;;;;;;;;;22.90;36.50;;;;;;1609889;72;1940;-54
2021/04/03 02:39:23;;;;;;;;;;;22.90;36.50;;;;;;1609467;72;1156;-55
2021/04/03 02:41:32;;;;;;;;;;;22.90;36.70;;;;;;1615548;72;623;-55
2021/04/03 02:43:36;;;;;;;;;;;22.80;36.70;;;;;;1606504;72;773;-55
2021/04/03 02:45:39;;;;;;;;;;;22.70;36.90;;;;;;1621545;72;750;-56
2021/04/03 02:47:45;;;;;;;;;;;22.60;37.00;;;;;;1599574;72;1079;-53
2021/04/03 02:49:49;;;;;;;;;;;22.60;37.10;;;;;;1607645;72;1230;-53
2021/04/03 02:51:52;;;;;;;;;;;22.60;37.40;;;;;;1598831;72;965;-55
2021/04/03 02:53:54;;;;;;;;;;;22.60;37.40;;;;;;1607131;72;747;-55
2021/04/03 02:55:56;;;;;;;;;;;22.60;37.50;;;;;;1608286;72;696;-54
2021/04/03 02:57:58;;;;;;;;;;;22.60;37.60;;;;;;1609986;72;1936;-55
2021/04/03 03:00:00;;;;;;;;;;;22.70;37.50;;;;;;1610307;72;1239;-56
2021/04/03 03:02:02;;;;;;;;;;;22.60;37.40;;;;;;1606270;72;735;-54
2021/04/03 03:04:04;;;;;;;;;;;22.70;37.70;;;;;;1606813;72;763;-54
2021/04/03 03:06:06;;;;;;;;;;;22.70;37.70;;;;;;1601289;72;660;-54
2021/04/03 03:08:08;;;;;;;;;;;22.70;37.70;;;;;;1607977;72;1170;-56
2021/04/03 03:10:10;;;;;;;;;;;22.70;37.80;;;;;;1608486;72;750;-56
2021/04/03 03:12:12;;;;;;;;;;;22.80;37.90;;;;;;1582950;73;1171;-55
2021/04/03 03:14:15;;;;;;;;;;;22.80;37.90;;;;;;1608217;72;779;-54
2021/04/03 03:16:17;;;;;;;;;;;22.70;38.10;;;;;;1604385;72;777;-54
2021/04/03 03:18:19;;;;;;;;;;;22.70;38.20;;;;;;1608223;72;1945;-52
2021/04/03 03:20:20;;;;;;;;;;;22.80;38.10;;;;;;1610203;72;781;-53
2021/04/03 03:22:22;;;;;;;;;;;22.80;38.10;;;;;;1608881;72;624;-56
2021/04/03 03:24:24;;;;;;;;;;;22.80;38.30;;;;;;1610463;72;935;-57
2021/04/03 03:26:26;;;;;;;;;;;22.90;38.30;;;;;;1609584;72;727;-57
2021/04/03 03:28:28;;;;;;;;;;;22.90;38.30;;;;;;1608817;72;1201;-57
2021/04/03 03:30:30;;;;;;;;;;;22.90;38.20;;;;;;1608888;72;676;-55
2021/04/03 03:32:32;;;;;;;;;;;22.90;38.00;;;;;;1609686;72;740;-54
2021/04/03 03:34:33;;;;;;;;;;;22.90;37.90;;;;;;1608939;72;768;-58
2021/04/03 03:36:36;;;;;;;;;;;22.90;37.70;;;;;;1609482;72;759;-59
2021/04/03 03:38:38;;;;;;;;;;;23.00;37.70;;;;;;1615766;72;1940;-54
2021/04/03 03:40:40;;;;;;;;;;;23.00;37.60;;;;;;1609583;72;790;-56
2021/04/03 03:42:42;;;;;;;;;;;23.00;37.70;;;;;;1610290;72;760;-58
2021/04/03 03:44:44;;;;;;;;;;;23.00;37.60;;;;;;1609458;72;794;-55
2021/04/03 03:46:46;;;;;;;;;;;23.10;37.80;;;;;;1602151;72;784;-56
2021/04/03 03:48:47;;;;;;;;;;;23.00;37.60;;;;;;1605361;72;1170;-55
2021/04/03 03:50:49;;;;;;;;;;;23.00;37.70;;;;;;1605557;72;750;-54
2021/04/03 03:52:51;;;;;;;;;;;23.00;37.80;;;;;;1610052;72;718;-57
2021/04/03 03:54:53;;;;;;;;;;;23.00;37.60;;;;;;1578718;70;214796;-63
2021/04/03 03:56:55;;;;;;;;;;;23.00;37.50;;;;;;1571764;74;796;-63
2021/04/03 03:58:57;;;;;;;;;;;23.10;37.70;;;;;;1570983;74;1953;-63
2021/04/03 04:00:59;;;;;;;;;;;23.10;37.50;;;;;;1558070;74;750;-63
2021/04/03 04:03:01;;;;;;;;;;;23.10;37.40;;;;;;1566803;74;806;-62
2021/04/03 04:05:03;;;;;;;;;;;23.10;37.30;;;;;;1570432;74;1272;-63
2021/04/03 04:07:05;;;;;;;;;;;23.20;37.20;;;;;;1578811;74;813;-62
2021/04/03 04:09:07;;;;;;;;;;;23.20;37.10;;;;;;1580004;74;810;-62
2021/04/03 04:11:09;;;;;;;;;;;23.20;37.10;;;;;;1571485;74;764;-62
2021/04/03 04:13:11;;;;;;;;;;;23.20;37.10;;;;;;1573403;74;764;-62
2021/04/03 04:15:13;;;;;;;;;;;23.20;36.90;;;;;;1573706;74;1257;-62
2021/04/03 04:17:15;;;;;;;;;;;23.20;37.10;;;;;;1569664;74;803;-66
2021/04/03 04:19:17;;;;;;;;;;;23.20;36.90;;;;;;1562297;74;1936;-62
2021/04/03 04:21:18;;;;;;;;;;;23.20;37.00;;;;;;1571773;74;751;-63
2021/04/03 04:23:20;;;;;;;;;;;23.20;36.80;;;;;;1570334;74;763;-63
2021/04/03 04:25:22;;;;;;;;;;;23.20;36.80;;;;;;1572619;74;1192;-64
2021/04/03 04:27:24;;;;;;;;;;;23.20;36.80;;;;;;1563340;74;795;-63
2021/04/03 04:29:26;;;;;;;;;;;23.20;36.70;;;;;;1569676;74;788;-63
2021/04/03 04:31:28;;;;;;;;;;;23.30;36.80;;;;;;1560134;74;757;-62
2021/04/03 04:33:30;;;;;;;;;;;23.30;36.90;;;;;;1568935;74;1151;-62
2021/04/03 04:35:31;;;;;;;;;;;23.20;36.80;;;;;;1567907;74;629;-62
2021/04/03 04:37:33;;;;;;;;;;;23.30;36.80;;;;;;1567552;74;1928;-63
2021/04/03 04:39:35;;;;;;;;;;;23.30;36.90;;;;;;1568414;74;764;-62
2021/04/03 04:41:37;;;;;;;;;;;23.20;36.80;;;;;;1575172;74;782;-61
2021/04/03 04:43:39;;;;;;;;;;;23.30;36.80;;;;;;1580424;74;1174;-63
2021/04/03 04:45:41;;;;;;;;;;;23.30;36.90;;;;;;1565908;74;732;-64
2021/04/03 04:47:43;;;;;;;;;;;23.30;36.90;;;;;;1570224;74;757;-64
2021/04/03 04:49:45;;;;;;;;;;;23.30;36.90;;;;;;1564878;74;661;-63
2021/04/03 04:51:47;;;;;;;;;;;23.30;36.90;;;;;;1563473;74;789;-63
2021/04/03 04:53:48;;;;;;;;;;;23.70;37.10;;;;;;1566679;74;1145;-63
2021/04/03 04:55:50;;;;;;;;;;;23.30;36.80;;;;;;1564129;74;756;-64
2021/04/03 04:57:52;;;;;;;;;;;23.30;36.90;;;;;;1583347;74;1934;-62
2021/04/03 04:59:55;;;;;;;;;;;23.40;36.90;;;;;;1557701;74;766;-62
2021/04/03 05:01:57;;;;;;;;;;;23.40;36.90;;;;;;1567351;74;782;-62
2021/04/03 05:03:59;;;;;;;;;;;23.40;36.90;;;;;;1566098;74;1197;-63
2021/04/03 05:06:01;;;;;;;;;;;23.40;36.90;;;;;;1571948;74;804;-63
2021/04/03 05:08:03;;;;;;;;;;;23.40;36.90;;;;;;1571926;74;760;-62
2021/04/03 05:10:05;;;;;;;;;;;23.30;36.90;;;;;;1573616;74;819;-62
2021/04/03 05:12:07;;;;;;;;;;;23.40;37.00;;;;;;1578422;74;785;-62
2021/04/03 05:14:09;;;;;;;;;;;23.40;37.00;;;;;;1572687;74;1223;-60
2021/04/03 05:16:11;;;;;;;;;;;23.40;36.90;;;;;;1573138;74;775;-62
2021/04/03 05:18:12;;;;;;;;;;;23.30;36.80;;;;;;1574810;74;1932;-62
2021/04/03 05:20:14;;;;;;;;;;;23.30;36.80;;;;;;1568951;74;792;-62
2021/04/03 05:22:16;;;;;;;;;;;23.40;36.80;;;;;;1570511;74;746;-62
2021/04/03 05:24:18;;;;;;;;;;;23.40;36.90;;;;;;1568691;74;1172;-63
2021/04/03 05:26:20;;;;;;;;;;;23.40;36.80;;;;;;1567158;74;758;-62
2021/04/03 05:28:22;;;;;;;;;;;23.40;36.70;;;;;;1561976;74;740;-63
2021/04/03 05:30:24;;;;;;;;;;;23.40;36.70;;;;;;1564057;74;740;-63
2021/04/03 05:32:26;;;;;;;;;;;23.40;36.80;;;;;;1568782;74;753;-62
2021/04/03 05:34:27;;;;;;;;;;;23.40;36.90;;;;;;1557070;74;1191;-63
2021/04/03 05:36:29;;;;;;;;;;;23.50;37.00;;;;;;1561359;74;785;-63
2021/04/03 05:38:31;;;;;;;;;;;23.40;36.80;;;;;;1566481;74;1936;-64
2021/04/03 05:40:33;;;;;;;;;;;23.40;36.80;;;;;;1566620;74;746;-64
2021/04/03 05:42:35;;;;;;;;;;;23.50;36.80;;;;;;1564062;74;816;-63
2021/04/03 05:44:37;;;;;;;;;;;23.40;36.70;;;;;;1563612;74;1150;-62
2021/04/03 05:46:41;;;;;;;;;;;23.50;36.80;;;;;;1567043;74;818;-62
2021/04/03 05:48:42;;;;;;;;;;;23.40;36.80;;;;;;1568519;74;1171;-67
2021/04/03 05:50:44;;;;;;;;;;;23.50;36.90;;;;;;1578771;74;805;-63
2021/04/03 05:52:46;;;;;;;;;;;23.50;36.90;;;;;;1577378;74;671;-63
2021/04/03 05:54:48;;;;;;;;;;;23.40;36.80;;;;;;1569399;74;1181;-64
2021/04/03 05:56:50;;;;;;;;;;;23.40;36.80;;;;;;1573036;74;660;-65
2021/04/03 05:58:52;;;;;;;;;;;23.50;36.80;;;;;;1564934;74;1946;-63
2021/04/03 06:00:54;;;;;;;;;;;23.40;36.70;;;;;;1578670;74;750;-64
2021/04/03 06:02:56;;;;;;;;;;;23.50;37.00;;;;;;1578951;74;772;-63
2021/04/03 06:04:58;;;;;;;;;;;23.50;37.00;;;;;;1564456;74;1176;-64
2021/04/03 06:06:59;;;;;;;;;;;23.50;37.00;;;;;;1569446;74;749;-65
2021/04/03 06:09:01;;;;;;;;;;;23.50;37.20;;;;;;1571116;74;750;-65
2021/04/03 06:11:09;;;;;;;;;;;23.40;37.10;;;;;;1572066;74;780;-66
2021/04/03 06:13:20;;;;;;;;;;;23.50;37.10;;;;;;1574035;74;681;-66
2021/04/03 06:15:24;;;;;;;;;;;23.60;37.10;;;;;;1569635;74;1244;-65
2021/04/03 06:17:26;;;;;;;;;;;23.50;37.10;;;;;;1571206;74;1648;-64
2021/04/03 06:19:27;;;;;;;;;;;23.50;37.00;;;;;;1564207;74;1942;-63
2021/04/03 06:21:29;;;;;;;;;;;23.50;37.30;;;;;;1575166;74;773;-67
2021/04/03 06:23:31;;;;;;;;;;;23.50;37.30;;;;;;1573657;74;1177;-64
2021/04/03 06:25:51;;;;;;;;;;;23.60;37.10;;;;;;1583719;74;707;-65
2021/04/03 06:28:07;;;;;;;;;;;23.60;37.20;;;;;;1560017;74;761;-63
2021/04/03 06:30:16;;;;;;;;;;;23.60;37.20;;;;;;1570919;74;1485;-63
2021/04/03 06:32:19;;;;;;;;;;;23.50;37.10;;;;;;1578852;74;661;-64
2021/04/03 06:34:27;;;;;;;;;;;23.60;37.20;;;;;;1578094;74;1219;-66
2021/04/03 06:36:29;;;;;;;;;;;23.60;37.30;;;;;;1569396;74;796;-64
2021/04/03 06:38:31;;;;;;;;;;;23.50;37.30;;;;;;1573326;74;1934;-68
2021/04/03 06:40:33;;;;;;;;;;;23.60;37.00;;;;;;1571216;74;788;-69
2021/04/03 06:42:36;;;;;;;;;;;23.60;36.60;;;;;;1568756;74;779;-69
2021/04/03 06:44:39;;;;;;;;;;;23.60;36.10;;;;;;1573241;74;1307;-68
2021/04/03 06:46:41;;;;;;;;;;;23.70;35.80;;;;;;1558236;74;817;-68
2021/04/03 06:48:43;;;;;;;;;;;23.70;35.40;;;;;;1572150;74;823;-69
2021/04/03 06:50:46;;;;;;;;;;;23.70;35.20;;;;;;1575820;74;932;-67
2021/04/03 06:52:47;;;;;;;;;;;23.70;35.00;;;;;;1574873;74;710;-69
2021/04/03 06:54:49;;;;;;;;;;;23.70;34.80;;;;;;1579899;74;1161;-70
2021/04/03 06:56:51;;;;;;;;;;;23.70;34.70;;;;;;1578423;74;799;-65
2021/04/03 06:58:55;;;;;;;;;;;23.60;34.50;;;;;;1571167;74;1941;-68
2021/04/03 07:00:57;;;;;;;;;;;23.60;34.20;;;;;;1571984;74;1447;-67
2021/04/03 07:02:59;;;;;;;;;;;23.60;34.20;;;;;;1569141;74;766;-67
2021/04/03 07:05:01;;;;;;;;;;;23.60;34.20;;;;;;1576277;74;1182;-68
2021/04/03 07:07:03;;;;;;;;;;;23.50;34.20;;;;;;1567855;74;795;-68
2021/04/03 07:09:05;;;;;;;;;;;23.60;33.90;;;;;;1570549;74;724;-68
2021/04/03 07:11:08;;;;;;;;;;;23.50;33.80;;;;;;1571440;74;771;-70
2021/04/03 07:13:11;;;;;;;;;;;23.50;33.80;;;;;;1570868;74;757;-67
2021/04/03 07:15:13;;;;;;;;;;;23.50;33.80;;;;;;1560635;74;1639;-66
2021/04/03 07:17:15;;;;;;;;;;;23.40;33.60;;;;;;1568428;74;813;-65
2021/04/03 07:19:18;;;;;;;;;;;23.40;33.70;;;;;;1563157;74;1946;-65
2021/04/03 07:21:19;;;;;;;;;;;23.40;33.60;;;;;;1557835;74;828;-64
2021/04/03 07:23:21;;;;;;;;;;;23.40;33.80;;;;;;1570932;74;770;-68
2021/04/03 07:25:25;;;;;;;;;;;23.40;34.40;;;;;;1572549;74;1256;-72
2021/04/03 07:27:27;;;;;;;;;;;23.40;34.30;;;;;;1557060;74;766;-70
2021/04/03 07:29:30;;;;;;;;;;;23.40;34.40;;;;;;1563826;74;808;-66
2021/04/03 07:31:40;;;;;;;;;;;23.40;34.30;;;;;;1556723;74;1448;-66
2021/04/03 07:33:50;;;;;;;;;;;23.40;34.30;;;;;;1573430;74;1161;-69
2021/04/03 07:35:56;;;;;;;;;;;23.40;34.40;;;;;;1562191;74;735;-67
2021/04/03 07:37:58;;;;;;;;;;;23.40;34.30;;;;;;1568747;74;771;-67
2021/04/03 07:40:00;;;;;;;;;;;23.40;34.00;;;;;;1544350;75;1968;-67
2021/04/03 07:42:02;;;;;;;;;;;23.40;33.90;;;;;;1525972;76;732;-66
2021/04/03 07:44:08;;;;;;;;;;;23.40;34.00;;;;;;1500752;77;1153;-67
2021/04/03 07:46:12;;;;;;;;;;;23.30;34.00;;;;;;1499032;77;1306;-66
2021/04/03 07:48:24;;;;;;;;;;;23.30;34.00;;;;;;1529728;76;790;-67
2021/04/03 07:50:37;;;;;;;;;;;23.30;34.00;;;;;;1500564;77;1551;-68
2021/04/03 07:52:54;;;;;;;;;;;23.30;34.00;;;;;;1533878;76;773;-66
2021/04/03 07:54:56;;;;;;;;;;;23.20;34.00;;;;;;1523791;76;1139;-66
2021/04/03 07:56:58;;;;;;;;;;;23.20;33.90;;;;;;1507637;77;776;-66
2021/04/03 07:59:00;;;;;;;;;;;23.20;33.90;;;;;;1532822;76;1944;-67
2021/04/03 08:01:09;;;;;;;;;;;23.20;33.90;;;;;;1509758;77;730;-67
2021/04/03 08:03:09;;;;;;;;;;;23.20;33.90;;;;;;1493133;78;1274;-66
2021/04/03 08:05:11;;;;;;;;;;;23.20;33.90;;;;;;1504763;78;1178;-66
2021/04/03 08:07:13;;;;;;;;;;;23.10;33.90;;;;;;1497951;78;820;-66
2021/04/03 08:09:16;;;;;;;;;;;23.20;33.80;;;;;;1507549;77;802;-68
2021/04/03 08:11:18;;;;;;;;;;;23.20;33.90;;;;;;1529495;76;781;-66
2021/04/03 08:13:20;;;;;;;;;;;23.10;33.80;;;;;;1523530;76;809;-67
2021/04/03 08:15:22;;;;;;;;;;;23.20;33.70;;;;;;1533753;76;1309;-67
2021/04/03 08:17:23;;;;;;;;;;;23.10;33.80;;;;;;1499327;78;759;-66
2021/04/03 08:19:26;;;;;;;;;;;23.10;33.80;;;;;;1525172;76;1944;-66
2021/04/03 08:21:28;;;;;;;;;;;23.10;33.70;;;;;;1531063;76;752;-66
2021/04/03 08:23:34;;;;;;;;;;;23.20;33.70;;;;;;1526563;76;1213;-66
2021/04/03 08:25:36;;;;;;;;;;;23.10;33.70;;;;;;1518224;76;836;-65
2021/04/03 08:27:38;;;;;;;;;;;23.10;33.60;;;;;;1516777;76;787;-66
2021/04/03 08:29:40;;;;;;;;;;;23.20;33.60;;;;;;1514788;76;812;-67
2021/04/03 08:31:42;;;;;;;;;;;23.10;33.60;;;;;;1516206;77;764;-64
2021/04/03 08:33:44;;;;;;;;;;;23.10;33.50;;;;;;1478963;78;1160;-66
2021/04/03 08:35:47;;;;;;;;;;;23.10;33.40;;;;;;1514523;77;771;-66
2021/04/03 08:38:06;;;;;;;;;;;23.10;33.30;;;;;;1515416;77;851;-66
2021/04/03 08:40:10;;;;;;;;;;;23.10;33.30;;;;;;1513282;77;1941;-65
2021/04/03 08:42:13;;;;;;;;;;;23.10;33.30;;;;;;1509168;76;1080;-70
2021/04/03 08:44:15;;;;;;;;;;;23.10;33.20;;;;;;1528864;77;1156;-67
2021/04/03 08:46:17;;;;;;;;;;;23.20;33.60;;;;;;1513482;77;751;-66
2021/04/03 08:48:19;;;;;;;;;;;23.30;33.40;;;;;;1513770;77;807;-68
2021/04/03 08:50:21;;;;;;;;;;;23.40;33.20;;;;;;1521992;77;736;-67
2021/04/03 08:52:22;;;;;;;;;;;23.50;33.10;;;;;;1512099;77;765;-67
2021/04/03 08:54:24;;;;;;;;;;;23.50;33.10;;;;;;1513682;77;1161;-69
2021/04/03 08:56:34;;;;;;;;;;;23.50;33.00;;;;;;1511336;76;817;-67
2021/04/03 08:58:36;;;;;;;;;;;23.40;32.80;;;;;;1516615;77;710;-67
2021/04/03 09:00:38;;;;;;;;;;;23.40;32.80;;;;;;1512141;77;1946;-66
2021/04/03 09:02:40;;;;;;;;;;;23.50;32.80;;;;;;1510537;77;763;-67
2021/04/03 09:04:41;;;;;;;;;;;23.40;32.60;;;;;;1514619;76;1269;-67
2021/04/03 09:06:50;;;;;;;;;;;23.50;32.70;;;;;;1517500;77;804;-67
2021/04/03 09:08:53;;;;;;;;;;;23.40;32.40;;;;;;1516657;77;785;-67
2021/04/03 09:10:55;;;;;;;;;;;23.50;32.60;;;;;;1524259;76;1793;-67
2021/04/03 09:12:59;;;;;;;;;;;23.40;32.40;;;;;;1525103;77;790;-67
2021/04/03 09:15:02;;;;;;;;;;;23.40;32.30;;;;;;1542113;76;1146;-67
2021/04/03 09:17:05;;;;;;;;;;;23.40;32.30;;;;;;1522172;76;747;-67
2021/04/03 09:19:07;;;;;;;;;;;23.40;32.20;;;;;;1524978;76;1937;-67
2021/04/03 09:21:10;;;;;;;;;;;23.40;32.10;;;;;;1525332;76;749;-66
2021/04/03 09:23:12;;;;;;;;;;;23.50;32.30;;;;;;1515425;76;1499;-66
2021/04/03 09:25:15;;;;;;;;;;;23.40;32.10;;;;;;1502573;77;1148;-66
2021/04/03 09:27:17;;;;;;;;;;;23.50;32.10;;;;;;1498303;77;758;-65
2021/04/03 09:29:19;;;;;;;;;;;23.40;31.90;;;;;;1506754;77;752;-67
2021/04/03 09:31:21;;;;;;;;;;;23.50;32.10;;;;;;1475638;79;796;-70
2021/04/03 09:33:24;;;;;;;;;;;23.50;32.00;;;;;;1480481;78;1140;-68
2021/04/03 09:35:30;;;;;;;;;;;23.40;32.00;;;;;;1514131;77;768;-70
2021/04/03 09:37:30;;;;;;;;;;;23.50;32.40;;;;;;1519219;77;1258;-70
2021/04/03 09:39:33;;;;;;;;;;;23.60;32.30;;;;;;1520660;77;1939;-69
2021/04/03 09:41:35;;;;;;;;;;;23.60;31.90;;;;;;1511016;77;1730;-70
2021/04/03 09:43:43;;;;;;;;;;;23.50;31.90;;;;;;1488936;78;1227;-70
2021/04/03 09:45:45;;;;;;;;;;;23.50;31.80;;;;;;1515436;77;789;-68
2021/04/03 09:47:46;;;;;;;;;;;23.50;31.80;;;;;;1519130;77;755;-68
2021/04/03 09:49:49;;;;;;;;;;;23.50;32.00;;;;;;1529613;76;743;-64
2021/04/03 09:51:50;;;;;;;;;;;23.50;31.70;;;;;;1519094;76;761;-68
2021/04/03 09:53:53;;;;;;;;;;;23.40;31.40;;;;;;1518123;71;217017;-65
2021/04/03 09:55:55;;;;;;;;;;;23.40;31.50;;;;;;1628317;71;722;-67
2021/04/03 09:57:57;;;;;;;;;;;23.50;31.60;;;;;;1642478;71;679;-66
2021/04/03 09:59:58;;;;;;;;;;;23.50;31.80;;;;;;1640335;71;1931;-72
2021/04/03 10:02:00;;;;;;;;;;;23.40;31.70;;;;;;1633670;71;764;-67
2021/04/03 10:04:02;;;;;;;;;;;23.40;31.70;;;;;;1633588;71;1265;-66
2021/04/03 10:06:04;;;;;;;;;;;23.50;31.90;;;;;;1637363;71;744;-65
2021/04/03 10:08:06;;;;;;;;;;;23.50;31.90;;;;;;1636503;71;928;-67
2021/04/03 10:10:08;;;;;;;;;;;23.40;32.00;;;;;;1636093;71;751;-65
2021/04/03 10:12:10;;;;;;;;;;;23.40;31.90;;;;;;1635961;71;788;-67
2021/04/03 10:14:12;;;;;;;;;;;23.40;31.90;;;;;;1608726;72;1189;-66
2021/04/03 10:16:14;;;;;;;;;;;23.40;32.00;;;;;;1612530;72;726;-66
2021/04/03 10:18:16;;;;;;;;;;;23.40;32.10;;;;;;1608501;73;800;-63
2021/04/03 10:20:18;;;;;;;;;;;23.40;32.10;;;;;;1598462;73;1922;-67
2021/04/03 10:22:20;;;;;;;;;;;23.40;32.10;;;;;;1639068;71;735;-67
2021/04/03 10:24:21;;;;;;;;;;;23.40;32.10;;;;;;1610387;72;1171;-68
2021/04/03 10:26:23;;;;;;;;;;;23.40;32.10;;;;;;1610125;72;747;-67
2021/04/03 10:28:25;;;;;;;;;;;23.40;32.10;;;;;;1610423;72;704;-67
2021/04/03 10:30:27;;;;;;;;;;;23.40;32.10;;;;;;1608977;72;777;-65
2021/04/03 10:32:29;;;;;;;;;;;23.40;32.20;;;;;;1610948;72;751;-65
2021/04/03 10:34:31;;;;;;;;;;;23.40;32.30;;;;;;1604462;73;1147;-65
2021/04/03 10:36:33;;;;;;;;;;;23.40;32.30;;;;;;1616656;72;734;-65
2021/04/03 10:38:35;;;;;;;;;;;23.40;32.20;;;;;;1610994;72;731;-64
2021/04/03 10:40:36;;;;;;;;;;;23.40;32.30;;;;;;1647134;71;1936;-66
2021/04/03 10:42:38;;;;;;;;;;;23.40;32.30;;;;;;1615259;72;763;-63
2021/04/03 10:44:41;;;;;;;;;;;23.40;32.40;;;;;;1640726;71;1193;-64
2021/04/03 10:46:43;;;;;;;;;;;23.40;32.40;;;;;;1639087;71;784;-65
2021/04/03 10:48:44;;;;;;;;;;;23.40;32.40;;;;;;1639617;71;726;-64
2021/04/03 10:50:46;;;;;;;;;;;23.40;32.50;;;;;;1638534;71;726;-65
2021/04/03 10:52:48;;;;;;;;;;;23.30;32.50;;;;;;1635496;71;766;-64
2021/04/03 10:54:50;;;;;;;;;;;23.40;32.50;;;;;;1643140;71;1223;-63
2021/04/03 10:56:52;;;;;;;;;;;23.50;32.60;;;;;;1633231;71;669;-65
2021/04/03 10:58:54;;;;;;;;;;;23.50;32.60;;;;;;1634657;71;742;-65
2021/04/03 11:00:56;;;;;;;;;;;23.50;32.60;;;;;;1639738;71;1939;-64
2021/04/03 11:02:58;;;;;;;;;;;23.50;32.60;;;;;;1638010;71;787;-65
2021/04/03 11:05:00;;;;;;;;;;;23.40;32.50;;;;;;1637208;71;1172;-65
2021/04/03 11:07:02;;;;;;;;;;;23.50;32.60;;;;;;1634520;71;770;-64
2021/04/03 11:09:04;;;;;;;;;;;23.50;32.60;;;;;;1637214;72;770;-65
2021/04/03 11:11:06;;;;;;;;;;;23.50;32.60;;;;;;1643058;71;740;-65
2021/04/03 11:13:08;;;;;;;;;;;23.50;32.40;;;;;;1644569;71;803;-65
2021/04/03 11:15:10;;;;;;;;;;;23.50;32.50;;;;;;1636292;71;1178;-65
2021/04/03 11:17:12;;;;;;;;;;;23.50;32.50;;;;;;1641159;71;765;-65
2021/04/03 11:19:13;;;;;;;;;;;23.50;32.50;;;;;;1637046;71;795;-64
2021/04/03 11:21:15;;;;;;;;;;;23.50;32.40;;;;;;1638193;71;1935;-62
2021/04/03 11:23:17;;;;;;;;;;;23.50;32.40;;;;;;1634568;71;766;-65
2021/04/03 11:25:19;;;;;;;;;;;23.50;32.50;;;;;;1641391;71;1166;-65
2021/04/03 11:27:21;;;;;;;;;;;23.60;32.40;;;;;;1641093;71;769;-65
2021/04/03 11:29:23;;;;;;;;;;;23.50;32.40;;;;;;1640313;71;752;-62
2021/04/03 11:31:25;;;;;;;;;;;23.50;32.40;;;;;;1631381;71;752;-64
2021/04/03 11:33:27;;;;;;;;;;;23.50;32.30;;;;;;1642104;71;749;-64
2021/04/03 11:35:29;;;;;;;;;;;23.60;32.40;;;;;;1633542;71;1173;-65
2021/04/03 11:37:31;;;;;;;;;;;23.60;32.30;;;;;;1641352;71;709;-64
2021/04/03 11:39:33;;;;;;;;;;;23.50;32.30;;;;;;1639198;72;770;-65
2021/04/03 11:41:35;;;;;;;;;;;23.50;32.40;;;;;;1631010;71;1932;-65
2021/04/03 11:43:37;;;;;;;;;;;23.50;32.30;;;;;;1638817;71;715;-65
2021/04/03 11:45:39;;;;;;;;;;;23.60;32.40;;;;;;1638534;71;1161;-64
2021/04/03 11:47:41;;;;;;;;;;;23.50;32.40;;;;;;1639497;71;803;-65
2021/04/03 11:49:43;;;;;;;;;;;23.50;32.40;;;;;;1639448;71;741;-66
2021/04/03 11:51:44;;;;;;;;;;;23.60;32.40;;;;;;1636531;71;739;-66
2021/04/03 11:53:46;;;;;;;;;;;23.50;32.40;;;;;;1640308;71;1313;-63
2021/04/03 11:55:48;;;;;;;;;;;23.50;32.30;;;;;;1635777;71;774;-64
2021/04/03 11:57:50;;;;;;;;;;;23.60;32.30;;;;;;1633215;71;765;-64
2021/04/03 11:59:52;;;;;;;;;;;23.50;32.40;;;;;;1641629;71;758;-65
2021/04/03 12:01:56;;;;;;;;;;;23.50;32.30;;;;;;1636015;71;1938;-63
2021/04/03 12:03:57;;;;;;;;;;;23.50;32.30;;;;;;1637082;71;1676;-65
2021/04/03 12:05:59;;;;;;;;;;;23.50;32.30;;;;;;1643407;71;758;-65
2021/04/03 12:08:01;;;;;;;;;;;23.50;32.30;;;;;;1645540;71;782;-64
2021/04/03 12:10:04;;;;;;;;;;;23.50;32.30;;;;;;1631057;71;750;-65
2021/04/03 12:12:07;;;;;;;;;;;23.50;32.30;;;;;;1647846;71;742;-66